sensor_id;sensor_type;location;lat;lon;timestamp;pressure;altitude;pressure_sealevel;temperature;humidity
32933;BME280;19444;50.518;10.870;2024-01-25T00:00:25;97202.50;;;7.23;100.00
32933;BME280;19444;50.518;10.870;2024-01-25T00:03:22;97193.16;;;7.00;100.00
32933;BME280;19444;50.518;10.870;2024-01-25T00:06:19;97182.78;;;6.78;100.00
32933;BME280;19444;50.518;10.870;2024-01-25T00:09:17;97195.03;;;6.90;100.00
32933;BME280;19444;50.518;10.870;2024-01-25T00:12:15;97195.81;;;7.16;100.00
32933;BME280;19444;50.518;10.870;2024-01-25T00:15:12;97192.91;;;6.81;100.00
32933;BME280;19444;50.518;10.870;2024-01-25T00:18:09;97183.84;;;6.77;100.00
32933;BME280;19444;50.518;10.870;2024-01-25T00:21:06;97184.91;;;7.07;100.00
32933;BME280;19444;50.518;10.870;2024-01-25T00:24:03;97178.19;;;7.40;100.00
32933;BME280;19444;50.518;10.870;2024-01-25T00:27:00;97186.50;;;7.18;100.00
32933;BME280;19444;50.518;10.870;2024-01-25T00:29:57;97190.50;;;6.95;100.00
32933;BME280;19444;50.518;10.870;2024-01-25T00:32:56;97181.41;;;7.27;100.00
32933;BME280;19444;50.518;10.870;2024-01-25T00:35:53;97196.84;;;7.40;100.00
32933;BME280;19444;50.518;10.870;2024-01-25T00:38:50;97190.75;;;7.04;100.00
32933;BME280;19444;50.518;10.870;2024-01-25T00:41:51;97191.84;;;7.08;100.00
32933;BME280;19444;50.518;10.870;2024-01-25T00:44:48;97197.94;;;7.29;100.00
32933;BME280;19444;50.518;10.870;2024-01-25T00:47:46;97189.94;;;7.29;100.00
32933;BME280;19444;50.518;10.870;2024-01-25T00:50:44;97193.16;;;7.10;100.00
32933;BME280;19444;50.518;10.870;2024-01-25T00:53:41;97192.91;;;7.07;100.00
32933;BME280;19444;50.518;10.870;2024-01-25T00:56:38;97200.34;;;7.25;100.00
32933;BME280;19444;50.518;10.870;2024-01-25T00:59:35;97190.22;;;7.12;100.00
32933;BME280;19444;50.518;10.870;2024-01-25T01:02:41;97202.47;;;7.28;100.00
32933;BME280;19444;50.518;10.870;2024-01-25T01:05:39;97218.47;;;7.18;100.00
32933;BME280;19444;50.518;10.870;2024-01-25T01:08:36;97217.91;;;7.36;100.00
32933;BME280;19444;50.518;10.870;2024-01-25T01:11:33;97212.59;;;7.36;100.00
32933;BME280;19444;50.518;10.870;2024-01-25T01:14:30;97235.28;;;7.08;100.00
32933;BME280;19444;50.518;10.870;2024-01-25T01:17:27;97213.69;;;7.25;100.00
32933;BME280;19444;50.518;10.870;2024-01-25T01:20:24;97232.06;;;7.22;100.00
32933;BME280;19444;50.518;10.870;2024-01-25T01:23:21;97231.78;;;7.28;100.00
32933;BME280;19444;50.518;10.870;2024-01-25T01:26:18;97238.75;;;7.24;100.00
32933;BME280;19444;50.518;10.870;2024-01-25T01:29:15;97245.13;;;7.13;100.00
32933;BME280;19444;50.518;10.870;2024-01-25T01:32:12;97224.88;;;7.17;100.00
32933;BME280;19444;50.518;10.870;2024-01-25T01:35:09;97228.34;;;7.18;100.00
32933;BME280;19444;50.518;10.870;2024-01-25T01:38:06;97236.31;;;6.92;100.00
32933;BME280;19444;50.518;10.870;2024-01-25T01:41:03;97228.31;;;7.12;100.00
32933;BME280;19444;50.518;10.870;2024-01-25T01:44:00;97235.53;;;7.17;100.00
32933;BME280;19444;50.518;10.870;2024-01-25T01:46:58;97232.06;;;7.11;100.00
32933;BME280;19444;50.518;10.870;2024-01-25T01:49:55;97235.53;;;7.07;100.00
32933;BME280;19444;50.518;10.870;2024-01-25T01:52:52;97242.19;;;7.30;100.00
32933;BME280;19444;50.518;10.870;2024-01-25T01:55:50;97232.34;;;7.10;100.00
32933;BME280;19444;50.518;10.870;2024-01-25T01:58:48;97223.53;;;6.89;100.00
32933;BME280;19444;50.518;10.870;2024-01-25T02:01:45;97229.41;;;7.01;100.00
32933;BME280;19444;50.518;10.870;2024-01-25T02:04:43;97221.94;;;6.98;100.00
32933;BME280;19444;50.518;10.870;2024-01-25T02:07:40;97239.78;;;7.13;100.00
32933;BME280;19444;50.518;10.870;2024-01-25T02:10:39;97233.69;;;7.07;100.00
32933;BME280;19444;50.518;10.870;2024-01-25T02:13:36;97232.31;;;6.95;100.00
32933;BME280;19444;50.518;10.870;2024-01-25T02:16:32;97234.75;;;7.17;100.00
32933;BME280;19444;50.518;10.870;2024-01-25T02:19:29;97230.97;;;7.48;100.00
32933;BME280;19444;50.518;10.870;2024-01-25T02:22:26;97228.34;;;7.18;100.00
32933;BME280;19444;50.518;10.870;2024-01-25T02:25:24;97224.88;;;7.02;100.00
32933;BME280;19444;50.518;10.870;2024-01-25T02:28:21;97216.34;;;7.10;100.00
32933;BME280;19444;50.518;10.870;2024-01-25T02:31:18;97215.03;;;7.07;100.00
32933;BME280;19444;50.518;10.870;2024-01-25T02:34:15;97228.31;;;6.82;100.00
32933;BME280;19444;50.518;10.870;2024-01-25T02:37:12;97217.16;;;6.90;100.00
32933;BME280;19444;50.518;10.870;2024-01-25T02:40:11;97218.72;;;6.76;100.00
32933;BME280;19444;50.518;10.870;2024-01-25T02:43:08;97217.69;;;6.77;100.00
32933;BME280;19444;50.518;10.870;2024-01-25T02:46:05;97217.38;;;6.53;100.00
32933;BME280;19444;50.518;10.870;2024-01-25T02:49:04;97214.47;;;6.70;100.00
32933;BME280;19444;50.518;10.870;2024-01-25T02:52:01;97222.19;;;7.02;100.00
32933;BME280;19444;50.518;10.870;2024-01-25T02:54:59;97220.00;;;6.43;100.00
32933;BME280;19444;50.518;10.870;2024-01-25T02:57:56;97214.97;;;6.67;100.00
32933;BME280;19444;50.518;10.870;2024-01-25T03:00:53;97197.16;;;6.82;100.00
32933;BME280;19444;50.518;10.870;2024-01-25T03:03:50;97201.44;;;6.78;100.00
32933;BME280;19444;50.518;10.870;2024-01-25T03:06:47;97210.97;;;6.54;100.00
32933;BME280;19444;50.518;10.870;2024-01-25T03:09:44;97212.34;;;6.77;100.00
32933;BME280;19444;50.518;10.870;2024-01-25T03:12:41;97213.66;;;6.69;100.00
32933;BME280;19444;50.518;10.870;2024-01-25T03:15:38;97220.03;;;6.53;100.00
32933;BME280;19444;50.518;10.870;2024-01-25T03:18:35;97222.72;;;6.63;100.00
32933;BME280;19444;50.518;10.870;2024-01-25T03:21:32;97224.59;;;6.93;100.00
32933;BME280;19444;50.518;10.870;2024-01-25T03:24:29;97221.13;;;6.72;100.00
32933;BME280;19444;50.518;10.870;2024-01-25T03:27:26;97221.84;;;6.32;100.00
32933;BME280;19444;50.518;10.870;2024-01-25T03:30:23;97242.66;;;6.40;100.00
32933;BME280;19444;50.518;10.870;2024-01-25T03:33:20;97244.28;;;6.62;100.00
32933;BME280;19444;50.518;10.870;2024-01-25T03:36:17;97247.28;;;6.96;100.00
32933;BME280;19444;50.518;10.870;2024-01-25T03:39:14;97255.09;;;6.30;100.00
32933;BME280;19444;50.518;10.870;2024-01-25T03:42:11;97260.00;;;6.73;100.00
32933;BME280;19444;50.518;10.870;2024-01-25T03:45:08;97261.59;;;6.64;100.00
32933;BME280;19444;50.518;10.870;2024-01-25T03:48:05;97285.63;;;7.00;100.00
32933;BME280;19444;50.518;10.870;2024-01-25T03:51:02;97285.31;;;6.61;100.00
32933;BME280;19444;50.518;10.870;2024-01-25T03:53:58;97296.22;;;6.64;100.00
32933;BME280;19444;50.518;10.870;2024-01-25T03:56:55;97314.69;;;7.01;100.00
32933;BME280;19444;50.518;10.870;2024-01-25T03:59:52;97315.47;;;6.87;100.00
32933;BME280;19444;50.518;10.870;2024-01-25T04:02:49;97317.72;;;6.47;100.00
32933;BME280;19444;50.518;10.870;2024-01-25T04:05:46;97313.78;;;6.65;100.00
32933;BME280;19444;50.518;10.870;2024-01-25T04:08:43;97311.63;;;6.52;100.00
32933;BME280;19444;50.518;10.870;2024-01-25T04:11:40;97323.13;;;6.63;100.00
32933;BME280;19444;50.518;10.870;2024-01-25T04:14:37;97331.00;;;6.32;100.00
32933;BME280;19444;50.518;10.870;2024-01-25T04:17:34;97323.53;;;5.87;100.00
32933;BME280;19444;50.518;10.870;2024-01-25T04:20:32;97317.47;;;5.22;100.00
32933;BME280;19444;50.518;10.870;2024-01-25T04:23:31;97309.91;;;5.78;100.00
32933;BME280;19444;50.518;10.870;2024-01-25T04:26:28;97305.44;;;5.47;100.00
32933;BME280;19444;50.518;10.870;2024-01-25T04:29:24;97288.50;;;5.95;100.00
32933;BME280;19444;50.518;10.870;2024-01-25T04:32:21;97300.00;;;6.06;100.00
32933;BME280;19444;50.518;10.870;2024-01-25T04:35:18;97321.50;;;5.99;100.00
32933;BME280;19444;50.518;10.870;2024-01-25T04:38:15;97320.97;;;5.65;100.00
32933;BME280;19444;50.518;10.870;2024-01-25T04:41:12;97329.38;;;6.26;100.00
32933;BME280;19444;50.518;10.870;2024-01-25T04:44:09;97345.25;;;5.74;100.00
32933;BME280;19444;50.518;10.870;2024-01-25T04:47:06;97342.72;;;5.57;100.00
32933;BME280;19444;50.518;10.870;2024-01-25T04:50:03;97319.38;;;6.01;100.00
32933;BME280;19444;50.518;10.870;2024-01-25T04:53:03;97327.81;;;5.56;100.00
32933;BME280;19444;50.518;10.870;2024-01-25T04:56:00;97327.75;;;5.83;100.00
32933;BME280;19444;50.518;10.870;2024-01-25T04:58:58;97322.75;;;5.49;100.00
32933;BME280;19444;50.518;10.870;2024-01-25T05:01:55;97325.41;;;5.49;100.00
32933;BME280;19444;50.518;10.870;2024-01-25T05:04:52;97327.16;;;5.76;100.00
32933;BME280;19444;50.518;10.870;2024-01-25T05:07:49;97340.91;;;5.94;100.00
32933;BME280;19444;50.518;10.870;2024-01-25T05:10:47;97334.84;;;6.04;100.00
32933;BME280;19444;50.518;10.870;2024-01-25T05:13:44;97329.59;;;5.77;100.00
32933;BME280;19444;50.518;10.870;2024-01-25T05:16:41;97338.00;;;5.96;100.00
32933;BME280;19444;50.518;10.870;2024-01-25T05:19:38;97355.09;;;6.10;100.00
32933;BME280;19444;50.518;10.870;2024-01-25T05:22:35;97375.69;;;5.88;100.00
32933;BME280;19444;50.518;10.870;2024-01-25T05:25:37;97378.59;;;6.28;100.00
32933;BME280;19444;50.518;10.870;2024-01-25T05:28:34;97387.00;;;5.73;100.00
32933;BME280;19444;50.518;10.870;2024-01-25T05:31:31;97383.59;;;6.15;100.00
32933;BME280;19444;50.518;10.870;2024-01-25T05:34:28;97380.78;;;6.37;100.00
32933;BME280;19444;50.518;10.870;2024-01-25T05:37:25;97389.31;;;6.39;100.00
32933;BME280;19444;50.518;10.870;2024-01-25T05:40:23;97388.97;;;6.25;100.00
32933;BME280;19444;50.518;10.870;2024-01-25T05:43:20;97389.22;;;5.54;100.00
32933;BME280;19444;50.518;10.870;2024-01-25T05:46:17;97378.59;;;5.54;100.00
32933;BME280;19444;50.518;10.870;2024-01-25T05:49:14;97393.75;;;5.86;100.00
32933;BME280;19444;50.518;10.870;2024-01-25T05:52:11;97409.31;;;5.99;100.00
32933;BME280;19444;50.518;10.870;2024-01-25T05:55:08;97402.94;;;5.73;100.00
32933;BME280;19444;50.518;10.870;2024-01-25T05:58:05;97415.00;;;6.13;100.00
32933;BME280;19444;50.518;10.870;2024-01-25T06:01:02;97425.81;;;5.74;100.00
32933;BME280;19444;50.518;10.870;2024-01-25T06:03:59;97439.75;;;5.54;100.00
32933;BME280;19444;50.518;10.870;2024-01-25T06:06:57;97432.97;;;6.01;100.00
32933;BME280;19444;50.518;10.870;2024-01-25T06:09:54;97429.69;;;5.88;100.00
32933;BME280;19444;50.518;10.870;2024-01-25T06:12:51;97414.72;;;5.50;100.00
32933;BME280;19444;50.518;10.870;2024-01-25T06:15:48;97414.09;;;6.02;100.00
32933;BME280;19444;50.518;10.870;2024-01-25T06:18:46;97420.13;;;6.30;100.00
32933;BME280;19444;50.518;10.870;2024-01-25T06:21:43;97419.50;;;5.80;100.00
32933;BME280;19444;50.518;10.870;2024-01-25T06:24:39;97427.38;;;5.97;100.00
32933;BME280;19444;50.518;10.870;2024-01-25T06:27:36;97433.16;;;6.26;100.00
32933;BME280;19444;50.518;10.870;2024-01-25T06:30:33;97435.22;;;6.14;100.00
32933;BME280;19444;50.518;10.870;2024-01-25T06:33:30;97447.88;;;6.34;100.00
32933;BME280;19444;50.518;10.870;2024-01-25T06:36:28;97445.47;;;6.32;100.00
32933;BME280;19444;50.518;10.870;2024-01-25T06:39:25;97459.59;;;6.38;100.00
32933;BME280;19444;50.518;10.870;2024-01-25T06:42:22;97455.31;;;5.94;100.00
32933;BME280;19444;50.518;10.870;2024-01-25T06:45:18;97464.09;;;6.00;100.00
32933;BME280;19444;50.518;10.870;2024-01-25T06:48:15;97489.13;;;5.99;100.00
32933;BME280;19444;50.518;10.870;2024-01-25T06:51:12;97486.44;;;5.72;100.00
32933;BME280;19444;50.518;10.870;2024-01-25T06:54:11;97485.19;;;5.53;100.00
32933;BME280;19444;50.518;10.870;2024-01-25T06:57:08;97490.69;;;5.95;100.00
32933;BME280;19444;50.518;10.870;2024-01-25T07:00:06;97498.31;;;5.86;100.00
32933;BME280;19444;50.518;10.870;2024-01-25T07:03:07;97511.72;;;5.48;100.00
32933;BME280;19444;50.518;10.870;2024-01-25T07:06:04;97521.16;;;5.33;100.00
32933;BME280;19444;50.518;10.870;2024-01-25T07:09:01;97509.34;;;6.00;100.00
32933;BME280;19444;50.518;10.870;2024-01-25T07:11:59;97504.19;;;5.66;100.00
32933;BME280;19444;50.518;10.870;2024-01-25T07:14:55;97495.38;;;5.88;100.00
32933;BME280;19444;50.518;10.870;2024-01-25T07:17:53;97501.66;;;5.77;100.00
32933;BME280;19444;50.518;10.870;2024-01-25T07:20:50;97494.72;;;6.03;100.00
32933;BME280;19444;50.518;10.870;2024-01-25T07:23:47;97500.84;;;6.03;100.00
32933;BME280;19444;50.518;10.870;2024-01-25T07:26:43;97492.78;;;5.93;100.00
32933;BME280;19444;50.518;10.870;2024-01-25T07:29:43;97499.25;;;6.34;100.00
32933;BME280;19444;50.518;10.870;2024-01-25T07:32:41;97497.09;;;6.31;100.00
32933;BME280;19444;50.518;10.870;2024-01-25T07:35:39;97504.09;;;6.10;100.00
32933;BME280;19444;50.518;10.870;2024-01-25T07:38:42;97516.81;;;6.03;100.00
32933;BME280;19444;50.518;10.870;2024-01-25T07:41:39;97517.13;;;5.80;100.00
32933;BME280;19444;50.518;10.870;2024-01-25T07:44:36;97507.13;;;5.92;100.00
32933;BME280;19444;50.518;10.870;2024-01-25T07:47:33;97523.84;;;6.14;100.00
32933;BME280;19444;50.518;10.870;2024-01-25T07:50:30;97529.75;;;6.21;100.00
32933;BME280;19444;50.518;10.870;2024-01-25T07:53:27;97529.59;;;6.75;100.00
32933;BME280;19444;50.518;10.870;2024-01-25T07:56:24;97529.91;;;6.42;100.00
32933;BME280;19444;50.518;10.870;2024-01-25T07:59:21;97535.72;;;6.34;100.00
32933;BME280;19444;50.518;10.870;2024-01-25T08:02:18;97559.75;;;6.44;100.00
32933;BME280;19444;50.518;10.870;2024-01-25T08:05:17;97547.78;;;5.87;100.00
32933;BME280;19444;50.518;10.870;2024-01-25T08:08:14;97540.63;;;6.15;100.00
32933;BME280;19444;50.518;10.870;2024-01-25T08:11:11;97556.94;;;6.28;100.00
32933;BME280;19444;50.518;10.870;2024-01-25T08:14:08;97551.34;;;6.25;100.00
32933;BME280;19444;50.518;10.870;2024-01-25T08:17:05;97552.84;;;5.62;100.00
32933;BME280;19444;50.518;10.870;2024-01-25T08:20:04;97548.59;;;5.88;100.00
32933;BME280;19444;50.518;10.870;2024-01-25T08:23:03;97556.28;;;5.62;100.00
32933;BME280;19444;50.518;10.870;2024-01-25T08:26:00;97561.50;;;6.01;100.00
32933;BME280;19444;50.518;10.870;2024-01-25T08:28:57;97558.78;;;6.23;100.00
32933;BME280;19444;50.518;10.870;2024-01-25T08:31:54;97565.72;;;6.24;100.00
32933;BME280;19444;50.518;10.870;2024-01-25T08:34:51;97562.69;;;6.47;100.00
32933;BME280;19444;50.518;10.870;2024-01-25T08:37:49;97569.63;;;6.85;100.00
32933;BME280;19444;50.518;10.870;2024-01-25T08:40:46;97563.53;;;6.21;100.00
32933;BME280;19444;50.518;10.870;2024-01-25T08:43:43;97573.28;;;6.10;100.00
32933;BME280;19444;50.518;10.870;2024-01-25T08:46:40;97573.38;;;6.20;100.00
32933;BME280;19444;50.518;10.870;2024-01-25T08:49:39;97571.53;;;6.21;100.00
32933;BME280;19444;50.518;10.870;2024-01-25T08:52:37;97571.31;;;6.60;100.00
32933;BME280;19444;50.518;10.870;2024-01-25T08:55:34;97565.59;;;6.41;100.00
32933;BME280;19444;50.518;10.870;2024-01-25T08:58:31;97572.00;;;6.13;100.00
32933;BME280;19444;50.518;10.870;2024-01-25T09:01:28;97577.56;;;6.11;100.00
32933;BME280;19444;50.518;10.870;2024-01-25T09:04:25;97581.88;;;5.90;100.00
32933;BME280;19444;50.518;10.870;2024-01-25T09:07:22;97582.75;;;5.96;100.00
32933;BME280;19444;50.518;10.870;2024-01-25T09:10:20;97584.78;;;5.89;100.00
32933;BME280;19444;50.518;10.870;2024-01-25T09:13:17;97583.06;;;5.78;100.00
32933;BME280;19444;50.518;10.870;2024-01-25T09:16:16;97584.53;;;5.90;100.00
32933;BME280;19444;50.518;10.870;2024-01-25T09:19:13;97589.72;;;6.02;100.00
32933;BME280;19444;50.518;10.870;2024-01-25T09:22:12;97594.66;;;6.15;100.00
32933;BME280;19444;50.518;10.870;2024-01-25T09:25:09;97592.19;;;5.87;100.00
32933;BME280;19444;50.518;10.870;2024-01-25T09:28:06;97592.94;;;5.82;100.00
32933;BME280;19444;50.518;10.870;2024-01-25T09:31:03;97597.97;;;5.79;100.00
32933;BME280;19444;50.518;10.870;2024-01-25T09:34:03;97588.00;;;6.18;100.00
32933;BME280;19444;50.518;10.870;2024-01-25T09:37:00;97598.22;;;5.99;100.00
32933;BME280;19444;50.518;10.870;2024-01-25T09:39:57;97607.25;;;6.25;100.00
32933;BME280;19444;50.518;10.870;2024-01-25T09:42:57;97612.75;;;6.18;100.00
32933;BME280;19444;50.518;10.870;2024-01-25T09:45:54;97605.38;;;6.25;100.00
32933;BME280;19444;50.518;10.870;2024-01-25T09:48:52;97615.50;;;6.23;100.00
32933;BME280;19444;50.518;10.870;2024-01-25T09:51:51;97617.78;;;6.42;100.00
32933;BME280;19444;50.518;10.870;2024-01-25T09:54:49;97624.56;;;5.79;100.00
32933;BME280;19444;50.518;10.870;2024-01-25T09:57:48;97605.63;;;5.75;100.00
32933;BME280;19444;50.518;10.870;2024-01-25T10:00:45;97612.91;;;6.07;100.00
32933;BME280;19444;50.518;10.870;2024-01-25T10:03:46;97619.41;;;6.16;100.00
32933;BME280;19444;50.518;10.870;2024-01-25T10:06:44;97614.22;;;6.31;100.00
32933;BME280;19444;50.518;10.870;2024-01-25T10:09:42;97620.00;;;6.23;100.00
32933;BME280;19444;50.518;10.870;2024-01-25T10:12:42;97618.94;;;6.24;100.00
32933;BME280;19444;50.518;10.870;2024-01-25T10:15:39;97609.75;;;6.37;100.00
32933;BME280;19444;50.518;10.870;2024-01-25T10:18:41;97622.16;;;6.26;100.00
32933;BME280;19444;50.518;10.870;2024-01-25T10:21:41;97616.63;;;6.33;100.00
32933;BME280;19444;50.518;10.870;2024-01-25T10:24:40;97625.06;;;6.51;100.00
32933;BME280;19444;50.518;10.870;2024-01-25T10:27:37;97624.75;;;6.21;100.00
32933;BME280;19444;50.518;10.870;2024-01-25T10:30:36;97626.78;;;6.36;100.00
32933;BME280;19444;50.518;10.870;2024-01-25T10:33:33;97625.25;;;6.45;100.00
32933;BME280;19444;50.518;10.870;2024-01-25T10:36:33;97626.16;;;6.28;100.00
32933;BME280;19444;50.518;10.870;2024-01-25T10:39:32;97622.47;;;6.62;100.00
32933;BME280;19444;50.518;10.870;2024-01-25T10:42:29;97609.25;;;6.13;100.00
32933;BME280;19444;50.518;10.870;2024-01-25T10:45:26;97617.47;;;6.70;100.00
32933;BME280;19444;50.518;10.870;2024-01-25T10:48:27;97607.56;;;6.61;100.00
32933;BME280;19444;50.518;10.870;2024-01-25T10:51:27;97606.75;;;6.60;100.00
32933;BME280;19444;50.518;10.870;2024-01-25T10:54:24;97606.91;;;6.48;100.00
32933;BME280;19444;50.518;10.870;2024-01-25T10:57:23;97606.69;;;6.23;100.00
32933;BME280;19444;50.518;10.870;2024-01-25T11:00:21;97613.41;;;6.63;100.00
32933;BME280;19444;50.518;10.870;2024-01-25T11:03:19;97616.50;;;6.81;100.00
32933;BME280;19444;50.518;10.870;2024-01-25T11:06:21;97618.81;;;7.10;100.00
32933;BME280;19444;50.518;10.870;2024-01-25T11:09:20;97607.38;;;7.15;100.00
32933;BME280;19444;50.518;10.870;2024-01-25T11:12:19;97616.94;;;6.68;100.00
32933;BME280;19444;50.518;10.870;2024-01-25T11:15:32;97605.22;;;6.69;100.00
32933;BME280;19444;50.518;10.870;2024-01-25T11:18:29;97593.28;;;7.82;100.00
32933;BME280;19444;50.518;10.870;2024-01-25T11:21:41;97597.78;;;7.13;100.00
32933;BME280;19444;50.518;10.870;2024-01-25T11:24:38;97588.59;;;6.57;100.00
32933;BME280;19444;50.518;10.870;2024-01-25T11:27:36;97598.63;;;6.45;100.00
32933;BME280;19444;50.518;10.870;2024-01-25T11:30:35;97595.97;;;6.77;100.00
32933;BME280;19444;50.518;10.870;2024-01-25T11:33:33;97595.53;;;6.58;100.00
32933;BME280;19444;50.518;10.870;2024-01-25T11:36:30;97610.09;;;6.77;100.00
32933;BME280;19444;50.518;10.870;2024-01-25T11:39:28;97604.03;;;6.92;100.00
32933;BME280;19444;50.518;10.870;2024-01-25T11:42:25;97604.78;;;6.82;100.00
32933;BME280;19444;50.518;10.870;2024-01-25T11:45:22;97609.22;;;7.09;100.00
32933;BME280;19444;50.518;10.870;2024-01-25T11:48:19;97599.97;;;6.79;100.00
32933;BME280;19444;50.518;10.870;2024-01-25T11:51:16;97587.13;;;6.39;100.00
32933;BME280;19444;50.518;10.870;2024-01-25T11:54:13;97588.50;;;6.42;100.00
32933;BME280;19444;50.518;10.870;2024-01-25T11:57:10;97605.63;;;6.56;100.00
32933;BME280;19444;50.518;10.870;2024-01-25T12:00:09;97601.78;;;6.74;100.00
32933;BME280;19444;50.518;10.870;2024-01-25T12:03:08;97602.28;;;7.08;100.00
32933;BME280;19444;50.518;10.870;2024-01-25T12:06:06;97604.47;;;7.21;100.00
32933;BME280;19444;50.518;10.870;2024-01-25T12:09:10;97607.22;;;6.89;100.00
32933;BME280;19444;50.518;10.870;2024-01-25T12:12:09;97598.69;;;6.87;100.00
32933;BME280;19444;50.518;10.870;2024-01-25T12:15:07;97601.50;;;6.75;100.00
32933;BME280;19444;50.518;10.870;2024-01-25T12:18:06;97599.44;;;6.77;100.00
32933;BME280;19444;50.518;10.870;2024-01-25T12:21:05;97602.59;;;7.17;100.00
32933;BME280;19444;50.518;10.870;2024-01-25T12:24:02;97607.50;;;6.88;100.00
32933;BME280;19444;50.518;10.870;2024-01-25T12:26:59;97619.94;;;7.19;100.00
32933;BME280;19444;50.518;10.870;2024-01-25T12:29:56;97607.13;;;7.16;100.00
32933;BME280;19444;50.518;10.870;2024-01-25T12:32:53;97605.47;;;7.10;100.00
32933;BME280;19444;50.518;10.870;2024-01-25T12:35:50;97601.53;;;7.18;100.00
32933;BME280;19444;50.518;10.870;2024-01-25T12:38:47;97613.66;;;7.46;100.00
32933;BME280;19444;50.518;10.870;2024-01-25T12:41:46;97607.88;;;7.64;100.00
32933;BME280;19444;50.518;10.870;2024-01-25T12:44:44;97607.25;;;7.41;100.00
32933;BME280;19444;50.518;10.870;2024-01-25T12:47:42;97606.97;;;7.38;100.00
32933;BME280;19444;50.518;10.870;2024-01-25T12:50:39;97616.31;;;7.40;100.00
32933;BME280;19444;50.518;10.870;2024-01-25T12:53:36;97605.72;;;7.56;100.00
32933;BME280;19444;50.518;10.870;2024-01-25T12:56:35;97605.94;;;7.44;100.00
32933;BME280;19444;50.518;10.870;2024-01-25T12:59:33;97595.09;;;7.71;100.00
32933;BME280;19444;50.518;10.870;2024-01-25T13:02:30;97591.28;;;7.47;100.00
32933;BME280;19444;50.518;10.870;2024-01-25T13:05:29;97586.72;;;6.95;100.00
32933;BME280;19444;50.518;10.870;2024-01-25T13:08:26;97577.59;;;6.80;100.00
32933;BME280;19444;50.518;10.870;2024-01-25T13:11:23;97582.41;;;6.83;100.00
32933;BME280;19444;50.518;10.870;2024-01-25T13:14:20;97577.13;;;6.89;100.00
32933;BME280;19444;50.518;10.870;2024-01-25T13:17:17;97568.38;;;6.98;100.00
32933;BME280;19444;50.518;10.870;2024-01-25T13:20:13;97563.00;;;6.93;100.00
32933;BME280;19444;50.518;10.870;2024-01-25T13:23:10;97562.84;;;7.10;100.00
32933;BME280;19444;50.518;10.870;2024-01-25T13:26:07;97559.78;;;6.86;100.00
32933;BME280;19444;50.518;10.870;2024-01-25T13:29:04;97545.03;;;7.16;100.00
32933;BME280;19444;50.518;10.870;2024-01-25T13:32:01;97548.25;;;7.23;100.00
32933;BME280;19444;50.518;10.870;2024-01-25T13:34:58;97541.91;;;7.39;100.00
32933;BME280;19444;50.518;10.870;2024-01-25T13:37:55;97550.69;;;6.82;100.00
32933;BME280;19444;50.518;10.870;2024-01-25T13:40:57;97554.88;;;7.20;100.00
32933;BME280;19444;50.518;10.870;2024-01-25T13:43:54;97559.47;;;7.30;100.00
32933;BME280;19444;50.518;10.870;2024-01-25T13:46:51;97551.00;;;6.91;100.00
32933;BME280;19444;50.518;10.870;2024-01-25T13:49:48;97538.84;;;7.10;100.00
32933;BME280;19444;50.518;10.870;2024-01-25T13:52:45;97548.06;;;6.92;100.00
32933;BME280;19444;50.518;10.870;2024-01-25T13:55:42;97548.00;;;7.29;100.00
32933;BME280;19444;50.518;10.870;2024-01-25T13:58:39;97568.31;;;6.88;100.00
32933;BME280;19444;50.518;10.870;2024-01-25T14:01:36;97574.38;;;6.78;100.00
32933;BME280;19444;50.518;10.870;2024-01-25T14:04:34;97560.03;;;7.37;100.00
32933;BME280;19444;50.518;10.870;2024-01-25T14:07:31;97553.13;;;6.89;100.00
32933;BME280;19444;50.518;10.870;2024-01-25T14:10:28;97549.81;;;6.71;100.00
32933;BME280;19444;50.518;10.870;2024-01-25T14:13:26;97541.09;;;7.33;100.00
32933;BME280;19444;50.518;10.870;2024-01-25T14:16:23;97536.53;;;7.29;100.00
32933;BME280;19444;50.518;10.870;2024-01-25T14:19:21;97547.63;;;7.05;100.00
32933;BME280;19444;50.518;10.870;2024-01-25T14:22:19;97537.03;;;7.16;100.00
32933;BME280;19444;50.518;10.870;2024-01-25T14:25:27;97539.28;;;6.92;100.00
32933;BME280;19444;50.518;10.870;2024-01-25T14:28:24;97538.03;;;7.04;100.00
32933;BME280;19444;50.518;10.870;2024-01-25T14:31:21;97541.63;;;6.78;100.00
32933;BME280;19444;50.518;10.870;2024-01-25T14:34:18;97542.66;;;7.29;100.00
32933;BME280;19444;50.518;10.870;2024-01-25T14:37:15;97541.56;;;7.20;100.00
32933;BME280;19444;50.518;10.870;2024-01-25T14:40:12;97536.09;;;6.90;100.00
32933;BME280;19444;50.518;10.870;2024-01-25T14:43:29;97534.53;;;7.04;100.00
32933;BME280;19444;50.518;10.870;2024-01-25T14:46:26;97543.19;;;7.26;100.00
32933;BME280;19444;50.518;10.870;2024-01-25T14:49:23;97547.28;;;6.92;100.00
32933;BME280;19444;50.518;10.870;2024-01-25T14:52:20;97549.72;;;7.03;100.00
32933;BME280;19444;50.518;10.870;2024-01-25T14:55:17;97542.09;;;6.70;100.00
32933;BME280;19444;50.518;10.870;2024-01-25T14:58:14;97536.28;;;6.78;100.00
32933;BME280;19444;50.518;10.870;2024-01-25T15:01:18;97539.06;;;6.56;100.00
32933;BME280;19444;50.518;10.870;2024-01-25T15:04:17;97530.16;;;6.77;100.00
32933;BME280;19444;50.518;10.870;2024-01-25T15:07:17;97522.72;;;6.79;100.00
32933;BME280;19444;50.518;10.870;2024-01-25T15:10:18;97526.06;;;6.60;100.00
32933;BME280;19444;50.518;10.870;2024-01-25T15:13:14;97531.38;;;6.60;100.00
32933;BME280;19444;50.518;10.870;2024-01-25T15:16:12;97530.38;;;6.34;100.00
32933;BME280;19444;50.518;10.870;2024-01-25T15:19:09;97523.81;;;6.46;100.00
32933;BME280;19444;50.518;10.870;2024-01-25T15:22:06;97534.84;;;6.60;100.00
32933;BME280;19444;50.518;10.870;2024-01-25T15:25:04;97526.25;;;6.95;100.00
32933;BME280;19444;50.518;10.870;2024-01-25T15:28:01;97541.69;;;6.51;100.00